createdAt,value
2018-09-16T00:00:00.266Z,23
2018-09-16T00:00:51.173Z,23
2018-09-16T00:01:41.226Z,23
2018-09-16T00:02:31.589Z,23
2018-09-16T00:03:21.416Z,22.9
2018-09-16T00:04:11.431Z,23
2018-09-16T00:05:01.216Z,23
2018-09-16T00:05:51.576Z,23
2018-09-16T00:06:41.360Z,23
2018-09-16T00:07:31.956Z,22.9
2018-09-16T00:08:21.233Z,22.9
2018-09-16T00:09:12.123Z,22.9
2018-09-16T00:10:16.833Z,22.9
2018-09-16T00:10:51.915Z,22.9
2018-09-16T00:11:40.631Z,22.9
2018-09-16T00:12:32.362Z,22.9
2018-09-16T00:13:21.573Z,22.9
2018-09-16T00:14:12.540Z,22.9
2018-09-16T00:15:01.970Z,22.9
2018-09-16T00:15:51.908Z,22.9
2018-09-16T00:16:41.525Z,22.9
2018-09-16T00:17:31.873Z,22.9
2018-09-16T00:18:22.230Z,22.9
2018-09-16T00:19:11.472Z,22.9
2018-09-16T00:20:02.935Z,22.9
2018-09-16T00:20:52.407Z,22.9
2018-09-16T00:21:42.542Z,22.9
2018-09-16T00:22:32.589Z,22.9
2018-09-16T00:23:22.235Z,22.9
2018-09-16T00:24:12.109Z,22.9
2018-09-16T00:25:03.622Z,22.9
2018-09-16T00:25:53.879Z,22.9
2018-09-16T00:26:42.084Z,22.9
2018-09-16T00:27:32.370Z,22.9
2018-09-16T00:28:23.286Z,22.9
2018-09-16T00:29:13.942Z,22.9
2018-09-16T00:30:03.114Z,22.9
2018-09-16T00:30:53.969Z,22.9
2018-09-16T00:31:42.644Z,22.9
2018-09-16T00:32:33.617Z,22.9
2018-09-16T00:33:22.206Z,22.9
2018-09-16T00:34:12.874Z,22.9
2018-09-16T00:35:03.564Z,22.9
2018-09-16T00:35:54.153Z,22.9
2018-09-16T00:36:44.446Z,22.9
2018-09-16T00:56:13.880Z,22.6
2018-09-16T00:57:03.486Z,22.6
2018-09-16T00:57:53.573Z,22.6
2018-09-16T00:58:43.880Z,22.6
2018-09-16T00:59:34.274Z,22.6
2018-09-16T01:00:23.435Z,22.6
2018-09-16T01:01:13.465Z,22.6
2018-09-16T01:02:03.859Z,22.6
2018-09-16T01:02:53.640Z,22.6
2018-09-16T01:03:42.784Z,22.6
2018-09-16T01:04:34.122Z,22.6
2018-09-16T01:05:23.774Z,22.6
2018-09-16T01:06:14.177Z,22.6
2018-09-16T01:07:04.177Z,22.7
2018-09-16T01:07:54.847Z,22.6
2018-09-16T01:08:44.680Z,22.7
2018-09-16T01:09:34.084Z,22.7
2018-09-16T01:10:23.916Z,22.7
2018-09-16T01:11:15.353Z,22.7
2018-09-16T01:12:04.326Z,22.7
2018-09-16T01:12:54.184Z,22.7
2018-09-16T01:13:44.483Z,22.8
2018-09-16T01:14:34.228Z,22.8
2018-09-16T01:15:24.321Z,22.8
2018-09-16T01:16:14.594Z,22.8
2018-09-16T01:17:04.709Z,22.8
2018-09-16T01:17:55.371Z,22.8
2018-09-16T01:18:44.886Z,22.8
2018-09-16T01:19:34.361Z,22.8
2018-09-16T01:20:24.638Z,22.8
2018-09-16T01:21:16.180Z,22.8
2018-09-16T01:22:05.139Z,22.8
2018-09-16T01:22:54.546Z,22.8
2018-09-16T01:23:44.941Z,22.8
2018-09-16T01:24:35.283Z,22.8
2018-09-16T01:25:25.115Z,22.8
2018-09-16T01:26:16.178Z,22.8
2018-09-16T01:27:06.116Z,22.8
2018-09-16T01:27:55.855Z,22.8
2018-09-16T01:28:45.665Z,22.8
2018-09-16T01:29:35.749Z,22.8
2018-09-16T01:30:25.715Z,22.8
2018-09-16T01:31:15.662Z,22.8
2018-09-16T01:32:06.201Z,22.7
2018-09-16T01:32:56.175Z,22.7
2018-09-16T01:33:45.136Z,22.7
2018-09-16T01:34:35.793Z,22.7
2018-09-16T01:35:26.416Z,22.8
2018-09-16T01:36:15.925Z,22.8
2018-09-16T01:37:05.965Z,22.8
2018-09-16T01:37:56.855Z,22.8
2018-09-16T01:38:46.374Z,22.8
2018-09-16T01:39:35.810Z,22.8
2018-09-16T01:40:26.692Z,22.8
2018-09-16T01:41:17.814Z,22.8
2018-09-16T01:42:07.150Z,22.8
2018-09-16T01:42:56.947Z,22.8
2018-09-16T01:43:46.414Z,22.8
2018-09-16T01:44:37.042Z,22.8
2018-09-16T01:45:27.140Z,22.9
2018-09-16T01:46:17.429Z,22.9
2018-09-16T01:47:07.694Z,22.9
2018-09-16T01:47:57.362Z,22.9
2018-09-16T01:48:46.876Z,22.9
2018-09-16T01:49:36.891Z,22.9
2018-09-16T01:50:26.971Z,22.9
2018-09-16T01:51:18.449Z,22.9
2018-09-16T01:52:08.152Z,22.9
2018-09-16T01:52:57.179Z,22.9
2018-09-16T01:53:46.919Z,22.9
2018-09-16T01:54:36.954Z,22.9
2018-09-16T01:55:27.889Z,22.9
2018-09-16T01:56:17.904Z,22.9
2018-09-16T01:57:08.257Z,22.8
2018-09-16T01:57:56.934Z,22.8
2018-09-16T01:58:48.483Z,22.8
2018-09-16T01:59:38.238Z,22.8
2018-09-16T02:00:27.426Z,22.8
2018-09-16T02:01:18.539Z,22.8
2018-09-16T02:02:09.246Z,22.9
2018-09-16T02:02:58.505Z,22.9
2018-09-16T02:03:48.290Z,22.9
2018-09-16T02:04:38.566Z,22.9
2018-09-16T02:05:27.498Z,22.9
2018-09-16T02:06:18.422Z,22.9
2018-09-16T02:07:08.448Z,22.9
2018-09-16T02:07:58.605Z,22.9
2018-09-16T02:08:48.607Z,22.9
2018-09-16T02:09:38.118Z,22.9
2018-09-16T02:10:28.163Z,22.9
2018-09-16T02:11:19.657Z,22.9
2018-09-16T02:12:08.908Z,22.9
2018-09-16T02:12:59.164Z,22.9
2018-09-16T02:13:48.429Z,22.9
2018-09-16T02:14:38.217Z,22.9
2018-09-16T02:15:28.230Z,22.9
2018-09-16T02:16:19.553Z,22.9
2018-09-16T02:17:09.847Z,22.9
2018-09-16T02:17:59.095Z,22.9
2018-09-16T02:18:48.470Z,22.9
2018-09-16T02:19:39.385Z,22.9
2018-09-16T02:20:28.376Z,22.9
2018-09-16T02:21:20.108Z,22.9
2018-09-16T02:22:09.717Z,22.9
2018-09-16T02:22:59.713Z,22.9
2018-09-16T02:23:50.659Z,22.9
2018-09-16T02:24:39.842Z,22.9
2018-09-16T02:25:29.593Z,22.9
2018-09-16T02:26:19.917Z,22.8
2018-09-16T02:27:09.545Z,22.8
2018-09-16T02:27:59.592Z,22.8
2018-09-16T02:28:50.132Z,22.9
2018-09-16T02:29:40.160Z,22.9
2018-09-16T02:30:30.559Z,22.9
2018-09-16T02:31:20.309Z,22.9
2018-09-16T02:32:10.879Z,22.8
2018-09-16T02:33:00.452Z,22.8
2018-09-16T02:33:50.826Z,22.9
2018-09-16T02:34:41.169Z,22.8
2018-09-16T02:35:30.331Z,22.8
2018-09-16T02:36:20.992Z,22.9
2018-09-16T02:37:11.651Z,22.9
2018-09-16T02:38:01.466Z,22.8
2018-09-16T02:38:50.899Z,22.9
2018-09-16T02:39:41.239Z,22.9
2018-09-16T02:40:31.090Z,22.9
2018-09-16T02:41:21.569Z,22.9
2018-09-16T02:42:11.167Z,22.8
2018-09-16T02:43:01.399Z,22.8
2018-09-16T02:43:51.370Z,22.8
2018-09-16T02:44:40.888Z,22.8
2018-09-16T02:45:31.126Z,22.8
2018-09-16T02:46:21.535Z,22.8
2018-09-16T02:47:11.574Z,22.8
2018-09-16T02:48:00.726Z,22.8
2018-09-16T02:48:51.676Z,22.8
2018-09-16T02:49:41.992Z,22.8
2018-09-16T02:50:31.825Z,22.8
2018-09-16T02:51:21.266Z,22.9
2018-09-16T02:52:12.163Z,22.9
2018-09-16T02:53:02.243Z,22.9
2018-09-16T02:53:52.355Z,22.9
2018-09-16T02:54:42.101Z,22.9
2018-09-16T02:55:32.445Z,22.9
2018-09-16T02:56:22.270Z,22.9
2018-09-16T02:57:12.538Z,22.9
2018-09-16T02:58:02.325Z,22.9
2018-09-16T02:58:52.923Z,22.9
2018-09-16T02:59:43.083Z,22.9
2018-09-16T03:00:33.082Z,22.9
2018-09-16T03:01:22.055Z,22.9
2018-09-16T03:02:12.687Z,22.9
2018-09-16T03:03:03.427Z,22.9
2018-09-16T03:03:52.865Z,22.9
2018-09-16T03:04:43.457Z,22.9
2018-09-16T03:05:33.778Z,22.9
2018-09-16T03:06:22.744Z,22.9
2018-09-16T03:07:12.869Z,22.9
2018-09-16T03:08:02.989Z,22.9
2018-09-16T03:08:52.869Z,22.9
2018-09-16T03:09:43.277Z,22.9
2018-09-16T03:10:33.671Z,22.9
2018-09-16T03:11:23.968Z,22.9
2018-09-16T03:12:13.443Z,22.9
2018-09-16T03:13:04.232Z,22.9
2018-09-16T03:13:54.255Z,22.9
2018-09-16T03:14:43.176Z,22.9
2018-09-16T03:15:33.711Z,22.9
2018-09-16T03:16:23.761Z,22.9
2018-09-16T03:17:14.094Z,22.9
2018-09-16T03:18:03.861Z,22.9
2018-09-16T03:18:54.323Z,22.9
2018-09-16T03:19:43.941Z,22.9
2018-09-16T03:20:34.594Z,22.9
2018-09-16T03:21:23.543Z,22.9
2018-09-16T03:22:13.608Z,22.9
2018-09-16T03:23:04.686Z,22.9
2018-09-16T03:23:54.596Z,22.9
2018-09-16T03:24:44.412Z,22.9
2018-09-16T03:25:35.891Z,22.9
2018-09-16T03:26:24.523Z,22.9
2018-09-16T03:27:14.281Z,22.9
2018-09-16T03:28:04.298Z,22.9
2018-09-16T03:28:54.356Z,22.9
2018-09-16T03:29:44.864Z,22.9
2018-09-16T03:30:35.555Z,22.9
2018-09-16T03:31:24.388Z,22.9
2018-09-16T03:32:15.636Z,22.9
2018-09-16T03:33:05.355Z,22.9
2018-09-16T03:33:55.044Z,22.9
2018-09-16T03:34:44.859Z,22.9
2018-09-16T03:35:35.986Z,22.9
2018-09-16T03:36:24.760Z,22.9
2018-09-16T03:37:15.931Z,22.9
2018-09-16T03:38:05.649Z,22.9
2018-09-16T03:38:55.438Z,22.9
2018-09-16T03:39:46.060Z,22.9
2018-09-16T03:40:36.342Z,22.9
2018-09-16T03:41:26.422Z,22.9
2018-09-16T03:42:15.728Z,23
2018-09-16T03:43:05.482Z,22.9
2018-09-16T03:43:56.171Z,22.9
2018-09-16T03:44:46.469Z,22.9
2018-09-16T03:45:36.787Z,22.9
2018-09-16T03:46:26.098Z,22.9
2018-09-16T03:47:16.393Z,22.9
2018-09-16T03:48:05.005Z,22.9
2018-09-16T03:48:56.246Z,22.9
2018-09-16T03:49:46.330Z,22.9
2018-09-16T03:50:37.273Z,22.9
2018-09-16T03:51:26.977Z,22.9
2018-09-16T03:52:16.207Z,22.9
2018-09-16T03:53:06.241Z,22.9
2018-09-16T03:53:56.007Z,22.9
2018-09-16T03:54:46.429Z,22.9
2018-09-16T03:55:37.380Z,22.9
2018-09-16T03:56:26.977Z,22.9
2018-09-16T03:57:16.846Z,22.9
2018-09-16T03:58:06.912Z,22.9
2018-09-16T03:58:57.535Z,22.9
2018-09-16T03:59:47.004Z,22.9
2018-09-16T04:00:37.637Z,22.9
2018-09-16T04:01:27.781Z,22.9
2018-09-16T04:02:17.767Z,22.9
2018-09-16T04:03:07.588Z,22.9
2018-09-16T04:03:57.943Z,22.9
2018-09-16T04:04:47.681Z,22.9
2018-09-16T04:05:38.048Z,22.9
2018-09-16T04:06:27.876Z,22.9
2018-09-16T04:07:17.621Z,22.9
2018-09-16T04:08:08.302Z,22.9
2018-09-16T04:08:57.456Z,22.9
2018-09-16T04:09:47.811Z,22.9
2018-09-16T04:10:38.168Z,22.9
2018-09-16T04:11:28.247Z,22.9
2018-09-16T04:12:18.258Z,22.9
2018-09-16T04:13:07.714Z,22.9
2018-09-16T04:13:59.325Z,22.9
2018-09-16T04:14:48.774Z,22.9
2018-09-16T04:15:37.651Z,22.9
2018-09-16T04:16:28.876Z,22.8
2018-09-16T04:17:18.701Z,22.9
2018-09-16T04:18:08.698Z,22.8
2018-09-16T04:18:58.788Z,22.8
2018-09-16T04:19:48.813Z,22.8
2018-09-16T04:20:38.590Z,22.8
2018-09-16T04:21:29.526Z,22.8
2018-09-16T04:22:19.078Z,22.9
2018-09-16T04:23:08.810Z,22.9
2018-09-16T04:23:59.168Z,22.9
2018-09-16T04:24:49.233Z,22.9
2018-09-16T04:25:38.698Z,22.9
2018-09-16T04:26:29.573Z,22.9
2018-09-16T04:27:19.557Z,22.9
2018-09-16T04:28:09.834Z,22.9
2018-09-16T04:29:00.129Z,22.9
2018-09-16T04:29:49.448Z,22.9
2018-09-16T04:30:39.228Z,22.9
2018-09-16T04:31:29.632Z,22.9
2018-09-16T04:32:20.143Z,22.8
2018-09-16T04:33:10.162Z,22.8
2018-09-16T04:33:58.478Z,22.8
2018-09-16T04:34:49.745Z,22.8
2018-09-16T04:35:40.055Z,22.8
2018-09-16T04:36:29.902Z,22.8
2018-09-16T04:37:19.916Z,22.8
2018-09-16T04:38:10.766Z,22.8
2018-09-16T04:39:00.121Z,22.8
2018-09-16T04:39:50.374Z,22.8
2018-09-16T04:40:40.432Z,22.8
2018-09-16T04:41:29.866Z,22.8
2018-09-16T04:42:19.485Z,22.8
2018-09-16T04:43:10.284Z,22.8
2018-09-16T04:44:01.477Z,22.8
2018-09-16T04:44:51.481Z,22.8
2018-09-16T04:45:39.959Z,22.8
2018-09-16T04:46:30.256Z,22.8
2018-09-16T04:47:20.981Z,22.8
2018-09-16T04:48:10.971Z,22.8
2018-09-16T04:49:01.586Z,22.8
2018-09-16T04:49:51.985Z,22.8
2018-09-16T04:50:41.470Z,22.8
2018-09-16T04:51:31.487Z,22.7
2018-09-16T04:52:20.205Z,22.7
2018-09-16T04:53:10.870Z,22.7
2018-09-16T04:54:00.816Z,22.6
2018-09-16T04:54:52.030Z,22.6
2018-09-16T04:55:41.373Z,22.6
2018-09-16T04:56:31.328Z,22.6
2018-09-16T04:57:21.202Z,22.6
2018-09-16T04:58:11.193Z,22.6
2018-09-16T04:59:01.229Z,22.6
2018-09-16T04:59:51.785Z,22.6
2018-09-16T05:00:41.832Z,22.6
2018-09-16T05:01:32.617Z,22.6
2018-09-16T05:02:22.075Z,22.6
2018-09-16T05:03:11.900Z,22.6
2018-09-16T05:04:02.469Z,22.6
2018-09-16T05:04:52.495Z,22.6
2018-09-16T05:05:42.600Z,22.6
2018-09-16T05:06:31.480Z,22.6
2018-09-16T05:07:22.752Z,22.6
2018-09-16T05:25:06.365Z,22.4
2018-09-16T05:25:56.316Z,22.4
2018-09-16T05:26:45.623Z,22.4
2018-09-16T05:27:36.311Z,22.4
2018-09-16T05:28:25.460Z,22.4
2018-09-16T05:29:15.802Z,22.4
2018-09-16T05:30:06.578Z,22.4
2018-09-16T05:30:56.020Z,22.4
2018-09-16T05:31:45.788Z,22.5
2018-09-16T05:32:36.571Z,22.5
2018-09-16T05:33:26.105Z,22.5
2018-09-16T05:34:16.163Z,22.5
2018-09-16T05:35:06.785Z,22.5
2018-09-16T05:35:56.606Z,22.5
2018-09-16T05:36:45.799Z,22.6
2018-09-16T05:37:36.511Z,22.6
2018-09-16T05:38:25.022Z,22.6
2018-09-16T05:39:16.548Z,22.6
2018-09-16T05:40:06.320Z,22.6
2018-09-16T05:40:57.285Z,22.6
2018-09-16T05:41:46.971Z,22.6
2018-09-16T05:42:35.658Z,22.6
2018-09-16T05:43:28.509Z,22.6
2018-09-16T05:44:16.362Z,22.6
2018-09-16T05:45:08.088Z,22.7
2018-09-16T05:45:57.325Z,22.7
2018-09-16T05:46:47.068Z,22.8
2018-09-16T05:47:36.314Z,22.8
2018-09-16T05:48:27.227Z,22.8
2018-09-16T05:49:17.407Z,22.8
2018-09-16T05:50:07.685Z,22.8
2018-09-16T05:50:58.356Z,22.8
2018-09-16T05:51:48.357Z,22.8
2018-09-16T05:52:38.090Z,22.8
2018-09-16T05:53:32.459Z,22.8
2018-09-16T05:54:17.086Z,22.8
2018-09-16T05:55:07.711Z,22.8
2018-09-16T05:55:58.619Z,22.8
2018-09-16T05:56:47.489Z,22.8
2018-09-16T05:57:38.559Z,22.8
2018-09-16T05:58:27.714Z,22.8
2018-09-16T05:59:19.783Z,22.8
2018-09-16T06:00:08.533Z,22.8
2018-09-16T06:00:59.559Z,22.8
2018-09-16T06:01:48.089Z,22.8
2018-09-16T06:02:37.814Z,22.8
2018-09-16T06:03:27.419Z,22.8
2018-09-16T06:04:18.506Z,22.8
2018-09-16T06:05:09.313Z,22.9
2018-09-16T06:05:59.304Z,22.9
2018-09-16T06:06:49.263Z,22.9
2018-09-16T06:07:37.525Z,22.9
2018-09-16T06:08:28.669Z,22.9
2018-09-16T06:09:18.889Z,22.9
2018-09-16T06:10:09.813Z,22.9
2018-09-16T06:11:00.861Z,22.9
2018-09-16T06:11:48.631Z,22.9
2018-09-16T06:12:39.355Z,22.9
2018-09-16T06:13:28.841Z,22.9
2018-09-16T06:14:19.909Z,22.9
2018-09-16T06:15:09.963Z,22.9
2018-09-16T06:15:59.939Z,22.9
2018-09-16T06:16:49.438Z,22.9
2018-09-16T06:17:40.003Z,22.9
2018-09-16T06:18:29.015Z,22.9
2018-09-16T06:19:19.436Z,22.9
2018-09-16T06:20:10.114Z,22.9
2018-09-16T06:20:59.083Z,22.9
2018-09-16T06:21:50.634Z,22.9
2018-09-16T06:22:41.149Z,22.9
2018-09-16T06:23:30.376Z,22.9
2018-09-16T06:24:19.970Z,22.9
2018-09-16T06:25:10.061Z,22.9
2018-09-16T06:26:00.633Z,22.9
2018-09-16T06:26:49.953Z,22.9
2018-09-16T06:27:39.647Z,22.9
2018-09-16T06:28:29.463Z,22.9
2018-09-16T06:29:19.266Z,22.9
2018-09-16T06:30:09.923Z,22.9
2018-09-16T06:31:00.292Z,22.9
2018-09-16T06:31:50.610Z,22.9
2018-09-16T06:32:41.207Z,22.9
2018-09-16T06:33:31.510Z,22.9
2018-09-16T06:34:21.083Z,22.9
2018-09-16T06:35:09.987Z,22.9
2018-09-16T06:36:00.369Z,22.9
2018-09-16T06:36:51.207Z,23
2018-09-16T06:37:41.080Z,23
2018-09-16T06:38:31.665Z,23
2018-09-16T06:39:21.242Z,23
2018-09-16T06:40:10.930Z,23
2018-09-16T06:41:01.310Z,22.9
2018-09-16T06:41:51.865Z,22.9
2018-09-16T06:42:40.517Z,23
2018-09-16T06:43:30.616Z,23
2018-09-16T06:44:21.561Z,23.1
2018-09-16T06:45:11.592Z,23.1
2018-09-16T06:46:01.357Z,23.1
2018-09-16T06:46:51.480Z,23.2
2018-09-16T06:47:41.866Z,23.2
2018-09-16T06:48:31.876Z,23.2
2018-09-16T06:49:22.454Z,23.2
2018-09-16T06:50:11.967Z,23.3
2018-09-16T06:51:04.701Z,23.3
2018-09-16T06:51:52.148Z,23.3
2018-09-16T06:52:41.389Z,23.3
2018-09-16T06:53:32.081Z,23.3
2018-09-16T06:54:21.389Z,23.3
2018-09-16T06:55:11.373Z,23.3
2018-09-16T06:56:01.758Z,23.3
2018-09-16T06:56:51.725Z,23.4
2018-09-16T06:57:42.284Z,23.4
2018-09-16T06:58:32.629Z,23.4
2018-09-16T06:59:21.809Z,23.4
2018-09-16T07:00:12.970Z,23.4
2018-09-16T07:01:03.408Z,23.4
2018-09-16T07:01:51.795Z,23.4
2018-09-16T07:02:42.407Z,23.4
2018-09-16T07:03:32.450Z,23.4
2018-09-16T07:04:22.998Z,23.4
2018-09-16T07:05:12.026Z,23.4
2018-09-16T07:06:01.828Z,23.4
2018-09-16T07:06:52.554Z,23.4
2018-09-16T07:07:43.596Z,23.4
2018-09-16T07:08:34.433Z,23.4
2018-09-16T07:09:23.484Z,23.4
2018-09-16T07:10:14.291Z,23.5
2018-09-16T07:11:03.882Z,23.5
2018-09-16T07:11:53.314Z,23.5
2018-09-16T07:12:42.913Z,23.5
2018-09-16T07:13:34.226Z,23.5
2018-09-16T07:14:25.133Z,23.6
2018-09-16T07:15:14.039Z,23.6
2018-09-16T07:16:03.696Z,23.6
2018-09-16T07:16:54.537Z,23.6
2018-09-16T07:17:44.084Z,23.6
2018-09-16T07:18:34.938Z,23.6
2018-09-16T07:19:23.744Z,23.6
2018-09-16T07:20:16.119Z,23.5
2018-09-16T07:21:03.367Z,23.5
2018-09-16T07:21:54.375Z,23.5
2018-09-16T07:22:44.130Z,23.5
2018-09-16T07:23:34.330Z,23.6
2018-09-16T07:24:24.535Z,23.6
2018-09-16T07:25:13.394Z,23.6
2018-09-16T07:26:04.064Z,23.6
2018-09-16T07:26:56.572Z,23.6
2018-09-16T07:27:44.547Z,23.6
2018-09-16T07:28:34.596Z,23.6
2018-09-16T07:29:24.901Z,23.6
2018-09-16T07:30:15.074Z,23.6
2018-09-16T07:31:04.984Z,23.5
2018-09-16T07:31:54.794Z,23.5
2018-09-16T07:32:44.449Z,23.5
2018-09-16T07:33:35.111Z,23.5
2018-09-16T07:34:25.508Z,23.5
2018-09-16T07:35:14.809Z,23.4
2018-09-16T07:36:04.958Z,23.5
2018-09-16T07:36:54.459Z,23.5
2018-09-16T07:37:44.249Z,23.5
2018-09-16T07:38:34.844Z,23.6
2018-09-16T07:39:25.961Z,23.6
2018-09-16T07:40:15.958Z,23.6
2018-09-16T07:41:05.019Z,23.6
2018-09-16T07:41:55.631Z,23.6
2018-09-16T07:42:44.898Z,23.6
2018-09-16T07:43:35.965Z,23.6
2018-09-16T07:44:25.603Z,23.6
2018-09-16T07:45:16.993Z,23.6
2018-09-16T07:46:05.890Z,23.6
2018-09-16T07:46:56.478Z,23.6
2018-09-16T07:47:46.626Z,23.6
2018-09-16T07:48:36.376Z,23.6
2018-09-16T07:49:27.000Z,23.6
2018-09-16T07:50:16.475Z,23.6
2018-09-16T07:51:06.295Z,23.6
2018-09-16T07:51:57.458Z,23.6
2018-09-16T07:52:45.928Z,23.6
2018-09-16T07:53:35.880Z,23.6
2018-09-16T07:54:26.107Z,23.6
2018-09-16T07:55:15.350Z,23.6
2018-09-16T07:56:06.365Z,23.6
2018-09-16T07:56:56.752Z,23.6
2018-09-16T07:57:46.980Z,23.6
2018-09-16T07:58:36.285Z,23.6
2018-09-16T07:59:26.645Z,23.6
2018-09-16T08:00:16.700Z,23.6
2018-09-16T08:01:06.341Z,23.6
2018-09-16T08:01:56.815Z,23.6
2018-09-16T08:02:46.364Z,23.6
2018-09-16T08:03:37.208Z,23.6
2018-09-16T08:04:26.972Z,23.6
2018-09-16T08:05:17.332Z,23.6
2018-09-16T08:06:09.351Z,23.6
2018-09-16T08:06:57.758Z,23.6
2018-09-16T08:07:46.998Z,23.6
2018-09-16T08:08:37.592Z,23.6
2018-09-16T08:09:27.470Z,23.6
2018-09-16T08:10:17.287Z,23.6
2018-09-16T08:11:07.819Z,23.6
2018-09-16T08:11:57.689Z,23.6
2018-09-16T08:12:47.526Z,23.6
2018-09-16T08:13:38.580Z,23.6
2018-09-16T08:14:28.188Z,23.6
2018-09-16T08:15:18.235Z,23.6
2018-09-16T08:16:08.627Z,23.6
2018-09-16T08:16:58.578Z,23.6
2018-09-16T08:17:49.454Z,23.6
2018-09-16T08:18:38.249Z,23.6
2018-09-16T08:19:28.553Z,23.6
2018-09-16T08:20:17.932Z,23.6
2018-09-16T08:21:10.503Z,23.6
2018-09-16T08:21:57.751Z,23.6
2018-09-16T08:22:50.317Z,23.6
2018-09-16T08:23:41.191Z,23.6
2018-09-16T08:24:28.864Z,23.6
2018-09-16T08:25:18.325Z,23.6
2018-09-16T08:26:09.298Z,23.6
2018-09-16T08:27:00.132Z,23.6
2018-09-16T08:27:50.423Z,23.6
2018-09-16T08:28:41.751Z,23.6
2018-09-16T08:29:28.743Z,23.7
2018-09-16T08:30:19.655Z,23.7
2018-09-16T08:31:09.851Z,23.7
2018-09-16T08:31:59.053Z,23.7
2018-09-16T08:32:49.717Z,23.8
2018-09-16T08:33:40.079Z,23.8
2018-09-16T08:34:29.601Z,23.8
2018-09-16T08:35:20.479Z,23.8
2018-09-16T08:36:10.028Z,23.8
2018-09-16T08:37:00.277Z,23.8
2018-09-16T08:37:50.412Z,23.8
2018-09-16T08:38:40.188Z,23.8
2018-09-16T08:39:29.967Z,23.8
2018-09-16T08:40:20.885Z,23.8
2018-09-16T08:41:09.210Z,23.8
2018-09-16T08:42:00.900Z,23.8
2018-09-16T08:42:49.910Z,23.8
2018-09-16T08:43:39.968Z,23.8
2018-09-16T08:44:29.779Z,23.8
2018-09-16T08:45:21.209Z,23.8
2018-09-16T08:46:10.760Z,23.8
2018-09-16T08:47:00.837Z,23.9
2018-09-16T08:47:49.989Z,23.9
2018-09-16T08:48:41.132Z,23.9
2018-09-16T08:49:30.398Z,23.9
2018-09-16T08:50:21.012Z,23.9
2018-09-16T08:51:10.852Z,23.9
2018-09-16T08:52:00.773Z,23.9
2018-09-16T08:52:49.871Z,23.9
2018-09-16T08:53:41.320Z,23.9
2018-09-16T08:54:30.244Z,23.9
2018-09-16T08:55:21.638Z,23.9
2018-09-16T08:56:11.481Z,23.9
2018-09-16T08:57:01.251Z,23.9
2018-09-16T08:57:51.209Z,23.9
2018-09-16T08:58:41.815Z,23.9
2018-09-16T08:59:31.176Z,23.9
2018-09-16T09:00:20.596Z,23.9
2018-09-16T09:01:11.833Z,23.9
2018-09-16T09:02:02.220Z,24
2018-09-16T09:02:51.676Z,23.9
2018-09-16T09:03:42.068Z,24
2018-09-16T09:04:33.036Z,24
2018-09-16T09:05:21.908Z,24
2018-09-16T09:06:11.076Z,24
2018-09-16T09:07:01.496Z,24
2018-09-16T09:07:51.668Z,24
2018-09-16T09:08:41.301Z,24
2018-09-16T09:09:31.965Z,24
2018-09-16T09:10:22.566Z,24
2018-09-16T09:11:13.631Z,24
2018-09-16T09:12:04.474Z,24
2018-09-16T09:12:52.313Z,24
2018-09-16T09:13:42.535Z,24
2018-09-16T09:14:34.515Z,24
2018-09-16T09:15:21.325Z,24
2018-09-16T09:16:12.500Z,24.1
2018-09-16T09:17:02.243Z,24.1
2018-09-16T09:17:53.088Z,24.1
2018-09-16T09:18:43.164Z,24.1
2018-09-16T09:19:33.205Z,24.1
2018-09-16T09:20:21.785Z,24.1
2018-09-16T09:21:12.531Z,24.1
2018-09-16T09:22:03.778Z,24.1
2018-09-16T09:22:53.525Z,24.1
2018-09-16T09:39:34.659Z,23.9
2018-09-16T09:40:23.658Z,23.9
2018-09-16T09:41:13.760Z,23.9
2018-09-16T09:42:04.063Z,23.9
2018-09-16T09:42:55.902Z,24
2018-09-16T09:43:44.495Z,24
2018-09-16T09:44:34.287Z,24
2018-09-16T09:45:23.807Z,24
2018-09-16T09:46:14.672Z,24.1
2018-09-16T09:47:03.912Z,24.1
2018-09-16T09:47:54.537Z,24.1
2018-09-16T09:48:44.936Z,24.1
2018-09-16T09:49:34.924Z,24.1
2018-09-16T09:50:24.261Z,24.1
2018-09-16T09:51:15.300Z,24.1
2018-09-16T09:52:04.079Z,24.2
2018-09-16T09:52:54.899Z,24.2
2018-09-16T09:53:44.764Z,24.2
2018-09-16T09:54:35.378Z,24.2
2018-09-16T09:55:25.064Z,24.3
2018-09-16T09:56:15.191Z,24.3
2018-09-16T09:57:05.386Z,24.3
2018-09-16T09:57:56.112Z,24.3
2018-09-16T09:58:46.869Z,24.3
2018-09-16T09:59:37.437Z,24.3
2018-09-16T10:00:26.457Z,24.3
2018-09-16T10:01:16.424Z,24.3
2018-09-16T10:02:05.592Z,24.3
2018-09-16T10:02:55.958Z,24.3
2018-09-16T10:03:45.681Z,24.3
2018-09-16T10:04:35.844Z,24.3
2018-09-16T10:05:26.973Z,24.3
2018-09-16T10:06:17.435Z,24.3
2018-09-16T10:07:06.776Z,24.3
2018-09-16T10:07:56.318Z,24.3
2018-09-16T10:08:46.433Z,24.3
2018-09-16T10:09:36.741Z,24.3
2018-09-16T10:10:26.491Z,24.3
2018-09-16T10:11:16.863Z,24.3
2018-09-16T10:12:06.363Z,24.3
2018-09-16T10:12:56.678Z,24.3
2018-09-16T10:13:46.387Z,24.3
2018-09-16T10:14:38.533Z,24.3
2018-09-16T10:15:27.167Z,24.3
2018-09-16T10:16:17.328Z,24.3
2018-09-16T10:17:06.815Z,24.3
2018-09-16T10:17:56.588Z,24.3
2018-09-16T10:18:46.877Z,24.3
2018-09-16T10:19:37.790Z,24.4
2018-09-16T10:20:27.342Z,24.3
2018-09-16T10:21:17.334Z,24.3
2018-09-16T10:22:07.399Z,24.3
2018-09-16T10:22:57.182Z,24.4
2018-09-16T10:23:47.899Z,24.3
2018-09-16T10:24:37.536Z,24.4
2018-09-16T10:25:28.176Z,24.4
2018-09-16T10:26:18.348Z,24.3
2018-09-16T10:27:06.964Z,24.4
2018-09-16T10:27:58.119Z,24.4
2018-09-16T10:28:47.334Z,24.4
2018-09-16T10:29:37.996Z,24.4
2018-09-16T10:30:28.856Z,24.4
2018-09-16T10:31:18.129Z,24.4
2018-09-16T10:32:07.927Z,24.4
2018-09-16T10:32:58.459Z,24.4
2018-09-16T10:33:47.711Z,24.4
2018-09-16T10:34:38.073Z,24.4
2018-09-16T10:35:28.745Z,24.4
2018-09-16T10:36:18.723Z,24.4
2018-09-16T10:37:08.078Z,24.4
2018-09-16T10:37:58.303Z,24.4
2018-09-16T10:38:48.439Z,24.4
2018-09-16T10:39:38.458Z,24.4
2018-09-16T10:40:29.629Z,24.4
2018-09-16T10:41:20.589Z,24.4
2018-09-16T10:42:10.438Z,24.4
2018-09-16T10:43:00.185Z,24.4
2018-09-16T10:43:49.329Z,24.4
2018-09-16T10:44:39.217Z,24.4
2018-09-16T10:45:29.171Z,24.4
2018-09-16T10:46:19.185Z,24.5
2018-09-16T10:47:09.680Z,24.4
2018-09-16T10:47:59.685Z,24.4
2018-09-16T10:48:48.898Z,24.4
2018-09-16T10:49:39.235Z,24.4
2018-09-16T10:50:29.642Z,24.4
2018-09-16T10:51:20.000Z,24.4
2018-09-16T10:52:10.215Z,24.4
2018-09-16T10:53:00.060Z,24.4
2018-09-16T10:53:50.377Z,24.4
2018-09-16T10:54:39.293Z,24.4
2018-09-16T10:55:30.207Z,24.4
2018-09-16T10:56:20.017Z,24.4
2018-09-16T10:57:10.063Z,24.4
2018-09-16T10:58:00.405Z,24.4
2018-09-16T10:58:50.261Z,24.4
2018-09-16T10:59:39.793Z,24.4
2018-09-16T11:00:30.347Z,24.4
2018-09-16T11:01:20.092Z,24.4
2018-09-16T11:02:10.189Z,24.4
2018-09-16T11:03:00.249Z,24.4
2018-09-16T11:03:50.554Z,24.4
2018-09-16T11:04:40.024Z,24.4
2018-09-16T11:05:30.592Z,24.4
2018-09-16T11:06:21.210Z,24.4
2018-09-16T11:07:10.072Z,24.4
2018-09-16T11:08:02.652Z,24.4
2018-09-16T11:08:50.979Z,24.4
2018-09-16T11:09:41.042Z,24.5
2018-09-16T11:10:30.889Z,24.4
2018-09-16T11:11:21.241Z,24.4
2018-09-16T11:12:11.846Z,24.4
2018-09-16T11:13:02.092Z,24.4
2018-09-16T11:13:51.106Z,24.4
2018-09-16T11:14:41.186Z,24.4
2018-09-16T11:15:31.784Z,24.4
2018-09-16T11:16:21.633Z,24.4
2018-09-16T11:17:11.329Z,24.4
2018-09-16T11:18:02.473Z,24.4
2018-09-16T11:18:51.671Z,24.4
2018-09-16T11:19:41.211Z,24.4
2018-09-16T11:20:31.574Z,24.4
2018-09-16T11:21:21.971Z,24.4
2018-09-16T11:22:13.745Z,24.4
2018-09-16T11:23:02.289Z,24.4
2018-09-16T11:23:53.013Z,24.4
2018-09-16T11:24:42.193Z,24.4
2018-09-16T11:25:31.191Z,24.4
2018-09-16T11:26:21.803Z,24.4
2018-09-16T11:27:11.957Z,24.4
2018-09-16T11:28:01.128Z,24.4
2018-09-16T11:28:52.150Z,24.4
2018-09-16T11:29:42.586Z,24.4
2018-09-16T11:30:32.365Z,24.4
2018-09-16T11:31:22.699Z,24.4
2018-09-16T11:32:12.759Z,24.4
2018-09-16T11:33:03.030Z,24.4
2018-09-16T11:33:52.397Z,24.4
2018-09-16T11:34:42.887Z,24.4
2018-09-16T11:35:34.162Z,24.4
2018-09-16T11:36:23.610Z,24.4
2018-09-16T11:37:13.099Z,24.4
2018-09-16T11:38:01.766Z,24.4
2018-09-16T11:38:53.740Z,24.4
2018-09-16T11:39:42.570Z,24.4
2018-09-16T11:40:32.392Z,24.4
2018-09-16T11:41:23.455Z,24.4
2018-09-16T11:42:14.376Z,24.4
2018-09-16T11:43:04.098Z,24.4
2018-09-16T11:43:53.746Z,24.4
2018-09-16T11:44:43.349Z,24.4
2018-09-16T11:45:34.057Z,24.4
2018-09-16T11:46:22.962Z,24.4
2018-09-16T11:47:13.355Z,24.4
2018-09-16T11:48:04.043Z,24.4
2018-09-16T11:48:54.577Z,24.4
2018-09-16T11:49:44.160Z,24.4
2018-09-16T11:50:33.585Z,24.4
2018-09-16T11:51:23.620Z,24.4
2018-09-16T11:52:13.760Z,24.4
2018-09-16T11:53:04.600Z,24.4
2018-09-16T11:53:54.133Z,24.4
2018-09-16T11:54:43.940Z,24.4
2018-09-16T11:55:34.522Z,24.4
2018-09-16T11:56:24.280Z,24.4
2018-09-16T11:57:14.088Z,24.4
2018-09-16T11:58:04.989Z,24.4
2018-09-16T11:58:54.775Z,24.4